Time;durP1;ratioP1;P1;durP2;ratioP2;P2;SDS_P1;SDS_P2;PMS_P1;PMS_P2;Temp;Humidity;BMP_temperature;BMP_pressure;BME280_temperature;BME280_humidity;BME280_pressure;Samples;Min_cycle;Max_cycle;Signal;HPM_P1;HPM_P2
2021/12/24 00:00:43;;;;;;;;;29.75;26.00;;;;;9.71;73.13;100778.09;5081451;27;45668;-65
2021/12/24 00:03:09;;;;;;;;;37.00;33.75;;;;;9.62;73.46;100766.44;5090940;27;46788;-65
2021/12/24 00:05:35;;;;;;;;;32.25;26.25;;;;;9.58;72.46;100761.06;5098110;27;45373;-65
2021/12/24 00:08:01;;;;;;;;;33.25;29.75;;;;;9.62;73.67;100774.34;5088166;27;45236;-65
2021/12/24 00:10:27;;;;;;;;;33.25;29.25;;;;;9.62;73.42;100781.38;5081235;27;45237;-65
2021/12/24 00:13:01;;;;;;;;;37.75;31.00;;;;;9.61;73.56;100772.59;5086282;27;45431;-65
2021/12/24 00:18:17;;;;;;;;;32.00;28.00;;;;;9.55;73.23;100767.16;5091486;27;45377;-65
2021/12/24 00:36:48;;;;;;;;;29.50;26.25;;;;;9.60;75.08;100743.50;5085888;27;45298;-65
2021/12/24 00:39:13;;;;;;;;;28.00;26.25;;;;;9.53;74.14;100731.91;5097029;27;45153;-65
2021/12/24 00:41:39;;;;;;;;;32.00;31.00;;;;;9.67;75.32;100740.19;5090819;27;45149;-65
2021/12/24 00:44:04;;;;;;;;;30.25;27.25;;;;;9.72;74.70;100740.28;5091399;27;45255;-65
2021/12/24 00:46:31;;;;;;;;;25.25;24.75;;;;;9.69;74.62;100725.28;5086367;27;45402;-65
2021/12/24 00:49:00;;;;;;;;;34.00;26.25;;;;;9.77;74.89;100722.84;5090011;27;45504;-65
2021/12/24 00:51:53;;;;;;;;;28.25;25.75;;;;;9.71;75.10;100720.03;5090830;27;46992;-65
2021/12/24 00:57:00;;;;;;;;;28.50;26.25;;;;;9.81;74.63;100722.97;5088343;27;45570;-65
2021/12/24 00:59:26;;;;;;;;;30.00;27.50;;;;;9.77;74.10;100699.97;5087393;27;45341;-65
2021/12/24 01:01:51;;;;;;;;;35.50;31.50;;;;;9.80;75.14;100705.34;5083100;27;45494;-65
2021/12/24 01:04:16;;;;;;;;;29.75;24.75;;;;;9.83;73.82;100693.94;5085581;27;45547;-65
2021/12/24 01:06:43;;;;;;;;;28.50;26.50;;;;;9.92;74.11;100703.88;5082064;27;45383;-65
2021/12/24 01:09:08;;;;;;;;;27.50;26.25;;;;;9.93;74.55;100698.63;5084552;27;45342;-65
2021/12/24 01:11:34;;;;;;;;;36.00;26.00;;;;;9.86;73.95;100675.56;5086717;27;45280;-65
2021/12/24 01:13:59;;;;;;;;;34.50;28.00;;;;;9.91;74.10;100684.47;5088176;27;45568;-65
2021/12/24 01:16:43;;;;;;;;;26.50;26.50;;;;;9.90;74.58;100680.06;5087340;27;45444;-65
2021/12/24 01:19:17;;;;;;;;;34.25;26.50;;;;;9.96;74.36;100680.22;5087070;27;45346;-65
2021/12/24 01:24:48;;;;;;;;;34.00;29.00;;;;;9.98;73.95;100677.63;5097170;27;46572;-65
2021/12/24 01:30:00;;;;;;;;;35.25;29.50;;;;;9.95;73.83;100670.50;5082738;27;45732;-65
2021/12/24 01:38:11;;;;;;;;;30.50;26.00;;;;;10.01;73.92;100685.63;5088958;27;45401;-65
2021/12/24 01:43:23;;;;;;;;;30.25;26.50;;;;;10.01;74.25;100685.63;5089293;27;45361;-65
2021/12/24 01:45:52;;;;;;;;;32.50;30.75;;;;;9.93;73.82;100680.13;5098278;27;48049;-65
2021/12/24 01:48:18;;;;;;;;;36.25;30.50;;;;;10.00;74.03;100690.00;5093693;27;45184;-65
2021/12/24 01:50:47;;;;;;;;;35.25;29.25;;;;;9.96;73.90;100688.13;5085620;27;45223;-65
2021/12/24 01:53:20;;;;;;;;;31.00;26.00;;;;;9.88;73.71;100665.03;5095387;27;45497;-65
2021/12/24 01:55:48;;;;;;;;;35.00;33.75;;;;;9.92;73.66;100673.09;5097989;27;46201;-65
2021/12/24 01:58:18;;;;;;;;;28.50;28.50;;;;;9.94;73.70;100683.66;5090272;27;45351;-65
2021/12/24 02:00:46;;;;;;;;;29.50;23.00;;;;;9.96;73.67;100677.56;5100615;27;45232;-65
2021/12/24 02:03:12;;;;;;;;;39.75;33.00;;;;;10.03;73.97;100681.28;5092443;27;45394;-65
2021/12/24 02:05:40;;;;;;;;;28.00;24.50;;;;;9.98;73.51;100673.22;5084220;27;45386;-65
2021/12/24 02:08:06;;;;;;;;;33.50;25.25;;;;;9.90;73.82;100665.97;5089412;27;45359;-65
2021/12/24 02:10:32;;;;;;;;;24.75;24.00;;;;;10.00;74.05;100675.91;5083714;27;45414;-65
2021/12/24 02:12:57;;;;;;;;;26.50;25.00;;;;;9.98;73.87;100673.22;5087063;27;45232;-65
2021/12/24 02:28:48;;;;;;;;;31.00;26.50;;;;;10.00;73.71;100666.25;5083188;27;45300;-65
2021/12/24 02:31:17;;;;;;;;;27.75;26.25;;;;;10.01;73.27;100668.03;5084659;27;45212;-65
2021/12/24 02:33:43;;;;;;;;;29.00;26.00;;;;;10.00;74.42;100665.34;5089423;27;45384;-65
2021/12/24 02:36:09;;;;;;;;;34.75;26.75;;;;;10.03;73.44;100671.59;5087176;27;45317;-65
2021/12/24 02:38:36;;;;;;;;;29.75;24.25;;;;;9.97;73.67;100654.69;5092785;27;45492;-66
2021/12/24 02:41:03;;;;;;;;;29.50;27.00;;;;;9.98;74.27;100660.03;5095941;27;45415;-65
2021/12/24 02:43:29;;;;;;;;;17.75;15.50;;;;;9.92;73.63;100645.78;5087278;27;46546;-65
2021/12/24 02:45:58;;;;;;;;;26.00;22.75;;;;;10.01;74.51;100657.47;5086888;27;46304;-65
2021/12/24 02:53:59;;;;;;;;;30.25;26.75;;;;;10.00;74.40;100633.66;5090022;27;45358;-65
2021/12/24 02:56:29;;;;;;;;;25.75;22.00;;;;;10.07;74.19;100641.75;5083889;27;45966;-65
2021/12/24 02:58:57;;;;;;;;;24.50;24.25;;;;;10.08;73.92;100642.63;5089819;27;45340;-65
2021/12/24 03:01:29;;;;;;;;;27.25;27.00;;;;;10.01;74.01;100641.63;5086652;27;45360;-65
2021/12/24 03:03:54;;;;;;;;;32.00;26.25;;;;;10.06;73.96;100645.25;5088478;27;45371;-65
2021/12/24 03:06:32;;;;;;;;;32.25;25.75;;;;;10.02;73.53;100642.50;5094293;27;45387;-65
2021/12/24 03:08:58;;;;;;;;;28.75;25.50;;;;;10.10;74.20;100662.06;5086787;27;45298;-65
2021/12/24 03:11:24;;;;;;;;;27.00;26.50;;;;;10.14;73.92;100658.66;5083160;27;45280;-65
2021/12/24 03:13:51;;;;;;;;;26.25;25.50;;;;;10.08;74.19;100646.19;5085808;27;45450;-65
2021/12/24 03:16:17;;;;;;;;;31.00;27.00;;;;;10.09;73.57;100640.06;5084013;27;45403;-65
2021/12/24 03:18:44;;;;;;;;;26.50;26.50;;;;;10.13;74.57;100633.09;5092510;27;45366;-65
2021/12/24 03:21:28;;;;;;;;;27.25;27.25;;;;;10.16;73.71;100635.78;5083265;27;45456;-65
2021/12/24 03:26:33;;;;;;;;;25.00;22.75;;;;;10.12;73.55;100635.72;5085267;27;46241;-65
2021/12/24 03:28:58;;;;;;;;;32.75;27.75;;;;;10.09;73.64;100628.59;5086413;27;45291;-65
2021/12/24 03:31:24;;;;;;;;;29.50;23.25;;;;;10.12;73.24;100633.06;5083595;27;45468;-65
2021/12/24 03:33:53;;;;;;;;;32.25;28.75;;;;;10.00;73.80;100612.53;5086345;27;46358;-65
2021/12/24 03:36:20;;;;;;;;;26.00;23.25;;;;;10.09;73.30;100626.84;5086732;27;46365;-65
2021/12/24 03:38:45;;;;;;;;;26.00;21.50;;;;;10.09;73.85;100629.47;5093309;27;45336;-65
2021/12/24 03:41:10;;;;;;;;;27.25;25.75;;;;;10.03;74.13;100612.63;5094067;27;45375;-65
2021/12/24 03:43:36;;;;;;;;;26.50;22.75;;;;;10.04;73.04;100610.00;5098221;27;45380;-65
2021/12/24 03:46:06;;;;;;;;;29.75;25.00;;;;;10.11;73.22;100608.41;5086268;27;45268;-65
2021/12/24 03:48:55;;;;;;;;;30.25;27.00;;;;;10.10;73.84;100606.59;5090975;27;45322;-65
2021/12/24 03:52:37;;;;;;;;;28.50;25.25;;;;;9.87;73.58;100566.47;5084128;27;45694;-65
2021/12/24 03:57:00;;;;;;;;;32.50;26.25;;;;;10.04;73.62;100585.34;5089474;27;45457;-65
2021/12/24 03:59:26;;;;;;;;;29.50;26.25;;;;;10.06;73.93;100595.09;5098322;27;45271;-65
2021/12/24 04:01:51;;;;;;;;;30.50;26.75;;;;;9.97;73.76;100584.31;5094768;27;45499;-65
2021/12/24 04:04:17;;;;;;;;;25.75;23.00;;;;;9.96;74.17;100582.50;5087140;27;45513;-65
2021/12/24 04:06:42;;;;;;;;;31.25;28.00;;;;;10.05;74.09;100600.31;5083395;27;45310;-65
2021/12/24 04:09:08;;;;;;;;;29.75;27.50;;;;;10.02;74.32;100574.72;5088172;27;45422;-65
2021/12/24 04:11:36;;;;;;;;;25.75;24.75;;;;;10.06;74.06;100578.34;5085496;27;45398;-65
2021/12/24 04:14:01;;;;;;;;;28.00;26.50;;;;;10.03;74.43;100563.34;5085383;27;45394;-65
2021/12/24 04:16:28;;;;;;;;;30.25;26.75;;;;;9.98;74.14;100545.59;5084345;27;45320;-65
2021/12/24 04:19:25;;;;;;;;;31.00;25.00;;;;;10.01;73.80;100540.38;5086513;27;45304;-65
2021/12/24 04:24:53;;;;;;;;;34.00;25.50;;;;;9.94;73.20;100546.38;5077542;27;45434;-65
2021/12/24 04:27:21;;;;;;;;;25.75;24.75;;;;;10.05;73.80;100574.81;5089686;27;45393;-66
2021/12/24 04:29:47;;;;;;;;;36.00;29.75;;;;;9.98;74.06;100548.25;5080004;27;45158;-65
2021/12/24 04:32:17;;;;;;;;;28.00;24.50;;;;;9.96;74.21;100531.47;5086331;27;45513;-65
2021/12/24 04:34:46;;;;;;;;;27.25;26.00;;;;;9.93;73.70;100532.28;5080032;27;46012;-65
2021/12/24 04:39:57;;;;;;;;;30.50;28.25;;;;;9.98;74.51;100535.03;5108661;27;45344;-65
2021/12/24 05:01:45;;;;;;;;;28.00;25.75;;;;;9.98;74.33;100520.09;5083125;27;45249;-65
2021/12/24 05:04:12;;;;;;;;;28.25;26.75;;;;;10.04;74.00;100530.78;5085990;27;45340;-65
2021/12/24 05:06:48;;;;;;;;;42.75;36.50;;;;;9.93;73.97;100516.44;5082087;27;45400;-65
2021/12/24 05:09:15;;;;;;;;;26.25;23.75;;;;;9.98;74.10;100528.00;5086869;27;47699;-65
2021/12/24 05:11:41;;;;;;;;;29.75;24.75;;;;;10.01;73.89;100530.72;5085333;27;45455;-65
2021/12/24 05:14:06;;;;;;;;;31.50;24.50;;;;;10.01;74.68;100524.53;5093680;27;45459;-65
2021/12/24 05:16:53;;;;;;;;;26.00;21.25;;;;;9.97;74.19;100518.31;5086587;27;45391;-65
2021/12/24 05:22:03;;;;;;;;;29.25;25.50;;;;;10.06;74.16;100528.19;5098942;27;45451;-65
2021/12/24 05:24:30;;;;;;;;;28.00;24.25;;;;;9.99;74.53;100513.03;5102787;27;45263;-65
2021/12/24 05:27:03;;;;;;;;;33.00;26.25;;;;;10.02;74.52;100516.63;5103729;27;45430;-65
2021/12/24 05:29:29;;;;;;;;;28.00;25.00;;;;;10.06;74.60;100518.50;5112357;27;46366;-65
2021/12/24 05:31:55;;;;;;;;;28.50;24.50;;;;;10.06;74.76;100523.78;5097681;27;45464;-65
2021/12/24 05:34:21;;;;;;;;;26.75;23.50;;;;;10.06;74.28;100522.91;5099746;27;45527;-65
2021/12/24 05:36:47;;;;;;;;;30.25;27.00;;;;;10.12;74.55;100517.75;5101577;27;47135;-65
2021/12/24 05:39:14;;;;;;;;;19.75;19.75;;;;;10.07;74.74;100503.53;5099501;27;46888;-65
2021/12/24 05:41:40;;;;;;;;;27.75;24.50;;;;;10.10;74.75;100514.16;5099026;27;45450;-65
2021/12/24 05:44:08;;;;;;;;;26.00;25.00;;;;;10.09;74.46;100512.41;5099279;27;45326;-65
2021/12/24 05:46:34;;;;;;;;;30.25;25.25;;;;;10.10;74.56;100511.53;5107770;27;45498;-65
2021/12/24 05:48:59;;;;;;;;;28.00;22.50;;;;;10.08;74.68;100515.88;5102287;27;45436;-65
2021/12/24 05:51:25;;;;;;;;;28.75;24.00;;;;;10.14;74.09;100515.13;5108053;27;45356;-65
2021/12/24 05:53:50;;;;;;;;;27.75;22.25;;;;;10.11;73.70;100515.06;5104259;27;45701;-65
2021/12/24 05:56:15;;;;;;;;;24.50;20.00;;;;;10.19;73.53;100537.25;5108027;27;45518;-65
2021/12/24 05:58:41;;;;;;;;;28.75;25.00;;;;;10.15;74.56;100536.28;5103493;27;46268;-65
2021/12/24 06:01:07;;;;;;;;;24.25;21.00;;;;;10.08;73.70;100524.72;5100739;27;45335;-65
2021/12/24 06:03:33;;;;;;;;;22.75;22.25;;;;;10.08;74.06;100526.44;5094066;27;45298;-65
2021/12/24 06:05:58;;;;;;;;;26.00;22.75;;;;;10.12;74.97;100533.59;5112726;27;45548;-65
2021/12/24 06:08:24;;;;;;;;;23.00;22.25;;;;;10.16;74.56;100540.72;5087663;27;45359;-65
2021/12/24 06:10:49;;;;;;;;;24.75;21.00;;;;;10.11;74.39;100533.53;5089546;27;45389;-65
2021/12/24 06:13:14;;;;;;;;;24.50;22.00;;;;;10.12;74.37;100535.34;5104161;27;45905;-66
2021/12/24 06:15:46;;;;;;;;;26.00;22.00;;;;;10.15;74.44;100544.22;5093965;27;45219;-66
2021/12/24 06:18:20;;;;;;;;;24.00;20.25;;;;;10.09;74.46;100536.16;5090703;27;45653;-65
2021/12/24 06:20:46;;;;;;;;;24.75;23.75;;;;;9.98;74.89;100520.09;5082816;27;46087;-65
2021/12/24 06:23:12;;;;;;;;;25.50;22.25;;;;;10.07;75.26;100528.19;5090914;27;45237;-66
2021/12/24 06:25:38;;;;;;;;;20.50;16.50;;;;;10.11;74.01;100537.09;5083481;27;45556;-66
2021/12/24 06:28:03;;;;;;;;;23.25;21.00;;;;;10.05;74.82;100523.72;5090702;27;46482;-66
2021/12/24 06:30:29;;;;;;;;;23.75;22.25;;;;;10.04;76.01;100522.84;5082498;27;45225;-66
2021/12/24 06:33:00;;;;;;;;;22.00;17.50;;;;;10.02;75.27;100521.91;5092180;27;45534;-66
2021/12/24 06:35:26;;;;;;;;;20.25;19.00;;;;;9.90;76.43;100500.53;5088284;27;45850;-66
2021/12/24 06:37:53;;;;;;;;;19.75;17.00;;;;;10.00;76.18;100518.38;5090530;27;45481;-66
2021/12/24 06:40:19;;;;;;;;;19.00;19.00;;;;;10.00;75.38;100514.84;5100126;27;45231;-66
2021/12/24 06:42:45;;;;;;;;;18.00;16.25;;;;;9.98;75.37;100511.28;5088824;27;45388;-65
2021/12/24 06:45:11;;;;;;;;;19.50;18.00;;;;;9.96;76.05;100505.06;5081240;27;45470;-66
2021/12/24 06:47:37;;;;;;;;;22.50;18.25;;;;;9.82;75.85;100488.91;5092073;27;45311;-65
2021/12/24 06:50:03;;;;;;;;;21.00;21.00;;;;;9.96;77.51;100511.22;5088330;27;45361;-65
2021/12/24 06:52:29;;;;;;;;;26.50;20.00;;;;;9.91;75.63;100498.78;5089064;27;45456;-65
2021/12/24 06:54:55;;;;;;;;;22.75;15.25;;;;;9.95;76.86;100509.44;5088276;27;45465;-66
2021/12/24 06:57:22;;;;;;;;;20.75;17.75;;;;;9.98;76.65;100506.00;5086380;27;45445;-65
2021/12/24 06:59:47;;;;;;;;;19.25;19.25;;;;;9.95;76.43;100498.00;5088028;27;45394;-66
2021/12/24 07:02:14;;;;;;;;;18.25;15.50;;;;;9.96;77.31;100511.22;5085199;27;45244;-66
2021/12/24 07:04:39;;;;;;;;;16.00;13.50;;;;;9.89;76.34;100500.50;5086542;27;46199;-66
2021/12/24 07:07:04;;;;;;;;;12.00;11.00;;;;;9.91;76.39;100499.66;5083770;27;45256;-66
2021/12/24 07:09:30;;;;;;;;;15.50;13.00;;;;;9.95;77.01;100509.44;5085907;27;45408;-66
2021/12/24 07:11:55;;;;;;;;;12.25;12.25;;;;;9.88;76.93;100490.78;5088918;27;45925;-66
2021/12/24 07:14:23;;;;;;;;;13.50;13.50;;;;;9.96;77.30;100511.22;5088313;27;45549;-66
2021/12/24 07:16:49;;;;;;;;;15.50;12.50;;;;;9.96;77.24;100508.59;5088138;27;46468;-66
2021/12/24 07:19:14;;;;;;;;;13.75;13.50;;;;;10.02;76.64;100523.66;5084680;27;45643;-66
2021/12/24 07:21:41;;;;;;;;;10.50;9.75;;;;;9.94;77.18;100499.75;5098748;27;45347;-66
2021/12/24 07:24:07;;;;;;;;;13.00;12.25;;;;;9.93;76.98;100486.50;5085892;27;45472;-66
2021/12/24 07:26:32;;;;;;;;;11.00;11.00;;;;;10.03;77.36;100501.72;5085358;27;45246;-66
2021/12/24 07:28:57;;;;;;;;;16.75;13.50;;;;;10.00;77.62;100497.25;5087045;27;45215;-66
2021/12/24 07:31:23;;;;;;;;;12.50;12.00;;;;;9.96;77.43;100503.31;5089196;27;45270;-66
2021/12/24 07:33:48;;;;;;;;;11.00;11.00;;;;;9.96;76.83;100505.06;5100851;27;45283;-66
2021/12/24 07:36:14;;;;;;;;;17.25;16.75;;;;;10.01;77.37;100514.88;5096940;27;45273;-66
2021/12/24 07:38:40;;;;;;;;;10.75;10.25;;;;;9.96;76.46;100500.66;5091695;27;45319;-66
2021/12/24 07:41:05;;;;;;;;;13.00;13.00;;;;;10.05;77.03;100521.09;5095054;27;45263;-65
2021/12/24 07:43:31;;;;;;;;;14.50;11.50;;;;;9.98;77.06;100500.72;5096785;27;45508;-66
2021/12/24 07:45:57;;;;;;;;;10.00;10.00;;;;;10.00;77.28;100502.53;5083267;27;45359;-66
2021/12/24 07:48:31;;;;;;;;;14.25;12.75;;;;;10.06;77.79;100507.06;5089057;27;45665;-66
2021/12/24 07:53:24;;;;;;;;;20.25;17.00;;;;;10.02;77.97;100508.72;5091364;27;45334;-67
2021/12/24 07:55:51;;;;;;;;;13.00;13.00;;;;;10.02;77.38;100505.19;5082129;27;45673;-67
2021/12/24 07:58:18;;;;;;;;;16.00;12.50;;;;;10.06;77.65;100509.69;5089069;27;45710;-67
2021/12/24 08:00:44;;;;;;;;;11.00;11.00;;;;;9.97;77.42;100493.63;5082320;27;45347;-67
2021/12/24 08:03:10;;;;;;;;;11.75;10.75;;;;;10.00;77.53;100489.31;5088790;27;45224;-67
2021/12/24 08:05:39;;;;;;;;;14.00;12.75;;;;;10.02;79.21;100484.06;5081225;27;46477;-66
2021/12/24 08:08:06;;;;;;;;;12.25;11.00;;;;;10.04;78.28;100487.63;5092245;27;45898;-67
2021/12/24 08:10:33;;;;;;;;;10.25;10.25;;;;;9.98;77.01;100479.59;5080372;27;45382;-66
2021/12/24 08:12:59;;;;;;;;;11.00;10.75;;;;;10.04;78.26;100490.28;5089961;27;45359;-66
2021/12/24 08:15:24;;;;;;;;;10.50;9.75;;;;;10.00;78.28;100481.41;5079758;27;46480;-66
2021/12/24 08:17:50;;;;;;;;;12.00;10.50;;;;;9.99;77.43;100469.03;5090904;27;45326;-66
2021/12/24 08:20:21;;;;;;;;;9.00;9.00;;;;;10.00;77.30;100484.03;5077718;27;45194;-66
2021/12/24 08:22:46;;;;;;;;;15.50;10.25;;;;;10.03;77.42;100481.47;5090720;27;45393;-66
2021/12/24 08:25:11;;;;;;;;;14.50;12.75;;;;;10.01;77.18;100466.44;5079298;27;45786;-66
2021/12/24 08:27:40;;;;;;;;;13.50;12.50;;;;;10.04;77.88;100477.06;5088674;27;45434;-66
2021/12/24 08:30:07;;;;;;;;;25.25;21.50;;;;;10.06;78.03;100491.22;5088399;27;45374;-65
2021/12/24 08:32:37;;;;;;;;;29.75;21.75;;;;;10.04;78.77;100477.06;5085581;27;45320;-66
2021/12/24 08:35:03;;;;;;;;;20.25;17.25;;;;;10.09;78.14;100476.31;5086386;27;47252;-65
2021/12/24 08:37:30;;;;;;;;;22.50;21.00;;;;;10.09;77.98;100478.94;5092908;27;45441;-65
2021/12/24 08:39:55;;;;;;;;;28.25;26.00;;;;;10.12;77.85;100475.50;5098480;27;45310;-66
2021/12/24 08:42:22;;;;;;;;;32.75;29.25;;;;;10.13;78.34;100476.38;5089578;27;45531;-66
2021/12/24 08:44:47;;;;;;;;;12.75;12.75;;;;;10.13;77.79;100471.97;5087860;27;47445;-66
2021/12/24 08:47:13;;;;;;;;;68.00;48.50;;;;;10.19;78.22;100480.03;5087127;27;45374;-65
2021/12/24 08:49:38;;;;;;;;;26.25;23.00;;;;;10.16;79.32;100456.19;5087617;27;45320;-66
2021/12/24 08:52:04;;;;;;;;;16.00;14.50;;;;;10.25;78.23;100472.25;5085120;27;45460;-65
2021/12/24 08:54:30;;;;;;;;;9.50;9.50;;;;;10.18;76.84;100457.13;5087468;27;45426;-65
2021/12/24 08:56:56;;;;;;;;;14.50;12.75;;;;;10.23;78.07;100473.97;5088235;27;45345;-65
2021/12/24 08:59:23;;;;;;;;;21.00;13.50;;;;;10.30;78.83;100478.53;5086905;27;45290;-65
2021/12/24 09:01:49;;;;;;;;;15.25;14.25;;;;;10.34;78.05;100481.25;5084403;27;45548;-65
2021/12/24 09:04:15;;;;;;;;;53.25;40.00;;;;;10.30;78.35;100462.66;5089458;27;45454;-65
2021/12/24 09:06:40;;;;;;;;;34.50;33.75;;;;;10.40;77.62;100482.25;5081367;27;45377;-65
2021/12/24 09:09:07;;;;;;;;;49.25;38.50;;;;;10.41;77.91;100472.56;5084006;27;45355;-65
2021/12/24 09:11:38;;;;;;;;;14.00;13.75;;;;;10.40;76.85;100476.09;5083472;27;45418;-65
2021/12/24 09:14:03;;;;;;;;;7.50;7.50;;;;;10.44;77.26;100478.78;5084908;27;46678;-65
2021/12/24 09:16:30;;;;;;;;;45.25;36.00;;;;;10.46;77.63;100477.09;5081537;27;45560;-65
2021/12/24 09:19:03;;;;;;;;;9.75;9.75;;;;;10.52;77.78;100481.59;5086114;27;45366;-65
2021/12/24 09:21:29;;;;;;;;;14.00;12.25;;;;;10.49;78.04;100473.63;5082878;27;45335;-65
2021/12/24 09:23:57;;;;;;;;;34.75;29.00;;;;;10.50;78.27;100475.38;5085905;27;45595;-65
2021/12/24 09:26:28;;;;;;;;;13.50;10.25;;;;;10.50;78.24;100468.38;5081794;27;45335;-65
2021/12/24 09:28:54;;;;;;;;;15.00;14.00;;;;;10.65;77.57;100488.03;5086328;27;45278;-65
2021/12/24 09:31:19;;;;;;;;;14.50;14.00;;;;;10.50;77.19;100454.25;5084840;27;45302;-65
2021/12/24 09:33:44;;;;;;;;;15.50;13.00;;;;;10.68;77.66;100486.31;5102457;27;45429;-65
2021/12/24 09:36:10;;;;;;;;;22.50;20.50;;;;;10.62;76.66;100469.47;5087653;27;45277;-65
2021/12/24 09:38:36;;;;;;;;;11.75;10.00;;;;;10.63;76.01;100471.22;5093544;27;45714;-66
2021/12/24 09:41:01;;;;;;;;;25.25;20.50;;;;;10.69;76.71;100480.16;5099101;27;45514;-65
2021/12/24 09:43:26;;;;;;;;;12.25;8.25;;;;;10.62;76.13;100464.19;5093676;27;45985;-65
2021/12/24 09:45:52;;;;;;;;;16.00;16.00;;;;;10.71;77.42;100477.56;5086006;27;45311;-65
2021/12/24 09:48:18;;;;;;;;;12.00;11.00;;;;;10.67;76.79;100460.75;5094618;27;45394;-65
2021/12/24 09:50:44;;;;;;;;;13.00;10.00;;;;;10.70;77.85;100459.94;5085062;27;45327;-65
2021/12/24 09:53:09;;;;;;;;;11.00;11.00;;;;;10.71;77.39;100456.41;5092758;27;45395;-65
2021/12/24 09:55:34;;;;;;;;;10.75;10.25;;;;;10.52;77.01;100420.81;5084234;27;45577;-65
2021/12/24 09:58:00;;;;;;;;;12.75;12.00;;;;;10.71;76.94;100444.06;5091676;27;45260;-65
2021/12/24 10:00:27;;;;;;;;;12.00;11.25;;;;;10.82;77.23;100456.59;5099800;27;45345;-65
2021/12/24 10:02:55;;;;;;;;;10.00;10.00;;;;;10.75;76.77;100451.22;5105940;27;45339;-65
2021/12/24 10:05:35;;;;;;;;;12.50;12.50;;;;;10.79;76.48;100460.09;5082985;27;45369;-65
2021/12/24 10:08:08;;;;;;;;;14.25;12.00;;;;;10.78;76.94;100457.41;5097701;27;45409;-66
2021/12/24 10:10:41;;;;;;;;;13.25;13.25;;;;;10.92;77.15;100469.09;5082268;27;45638;-65
2021/12/24 10:13:25;;;;;;;;;11.25;11.25;;;;;10.91;76.86;100468.22;5099034;27;45268;-65
2021/12/24 10:15:55;;;;;;;;;28.25;28.25;;;;;10.91;76.75;100470.88;5092194;27;45287;-65
2021/12/24 10:18:30;;;;;;;;;21.50;18.25;;;;;10.86;75.92;100461.94;5090981;27;45338;-65
2021/12/24 10:21:01;;;;;;;;;21.00;17.50;;;;;10.91;76.10;100462.94;5083879;27;45538;-65
2021/12/24 10:23:42;;;;;;;;;11.50;10.75;;;;;10.90;76.61;100463.81;5098557;27;48178;-65
2021/12/24 10:26:13;;;;;;;;;18.25;14.25;;;;;10.88;77.08;100448.78;5096535;27;45357;-65
2021/12/24 10:28:48;;;;;;;;;15.00;13.00;;;;;10.93;76.54;100442.69;5090839;27;45350;-65
2021/12/24 10:31:17;;;;;;;;;17.00;14.50;;;;;10.93;77.07;100428.59;5087144;27;45318;-67
2021/12/24 10:34:04;;;;;;;;;12.25;11.25;;;;;10.93;76.51;100433.88;5092998;27;45574;-66
2021/12/24 10:36:29;;;;;;;;;17.50;11.25;;;;;10.94;77.84;100433.00;5093907;27;45519;-65
2021/12/24 10:38:55;;;;;;;;;29.75;27.50;;;;;10.94;76.89;100425.06;5094015;27;45401;-65
2021/12/24 10:41:20;;;;;;;;;29.50;27.75;;;;;11.07;77.65;100434.13;5095825;27;46805;-65
2021/12/24 10:43:46;;;;;;;;;17.75;15.50;;;;;11.12;77.74;100427.16;5106460;27;45858;-65
2021/12/24 10:46:17;;;;;;;;;19.00;15.50;;;;;11.14;76.38;100422.75;5099659;27;45435;-65
2021/12/24 10:49:02;;;;;;;;;13.00;13.00;;;;;11.22;76.64;100423.75;5106905;27;45534;-65
2021/12/24 10:54:12;;;;;;;;;15.00;13.25;;;;;11.27;76.54;100407.97;5103038;27;45322;-65
2021/12/24 10:56:37;;;;;;;;;15.75;15.25;;;;;11.25;76.96;100392.06;5100311;27;45277;-65
2021/12/24 10:59:05;;;;;;;;;12.00;12.00;;;;;11.40;76.54;100420.53;5112626;27;45458;-65
2021/12/24 11:01:30;;;;;;;;;13.50;10.25;;;;;11.40;76.76;100413.47;5103818;27;45427;-65
2021/12/24 11:03:56;;;;;;;;;13.25;11.50;;;;;11.39;75.89;100406.38;5109282;27;45382;-64
2021/12/24 11:06:29;;;;;;;;;12.25;11.50;;;;;11.38;76.46;100390.50;5103859;27;45235;-65
2021/12/24 11:08:56;;;;;;;;;13.75;12.25;;;;;11.50;76.08;100387.13;5113614;27;45432;-65
2021/12/24 11:11:22;;;;;;;;;16.50;15.75;;;;;11.49;75.87;100369.47;5101118;27;45432;-65
2021/12/24 11:13:48;;;;;;;;;11.75;11.75;;;;;11.52;76.20;100365.09;5109637;27;45935;-65
2021/12/24 11:16:19;;;;;;;;;12.50;12.25;;;;;11.62;76.38;100376.69;5100355;27;45455;-65
2021/12/24 11:18:54;;;;;;;;;21.75;18.75;;;;;11.63;75.73;100373.19;5096210;27;45318;-65
2021/12/24 11:21:24;;;;;;;;;23.50;20.75;;;;;11.65;76.37;100364.41;5093802;27;45430;-65
2021/12/24 11:23:51;;;;;;;;;18.25;13.50;;;;;11.59;75.38;100339.59;5079157;27;48653;-65
2021/12/24 11:26:20;;;;;;;;;20.25;17.75;;;;;11.65;75.84;100359.13;5086072;27;45634;-65
2021/12/24 11:28:46;;;;;;;;;14.75;13.75;;;;;11.55;75.79;100332.50;5079596;27;45337;-65
2021/12/24 11:31:18;;;;;;;;;11.75;8.75;;;;;11.69;75.38;100354.75;5084925;27;46176;-65
2021/12/24 11:33:45;;;;;;;;;17.75;16.00;;;;;11.71;75.12;100358.31;5098036;27;46861;-65
2021/12/24 11:36:13;;;;;;;;;12.00;12.00;;;;;11.74;75.91;100357.47;5085032;27;45387;-65
2021/12/24 11:38:47;;;;;;;;;12.00;11.25;;;;;11.69;76.08;100341.50;5091861;27;45356;-65
2021/12/24 11:41:15;;;;;;;;;14.25;14.25;;;;;11.77;75.90;100350.44;5097125;27;45365;-65
2021/12/24 11:43:46;;;;;;;;;17.25;13.50;;;;;11.78;74.80;100352.19;5095538;27;47477;-64
2021/12/24 11:46:15;;;;;;;;;17.00;15.75;;;;;11.76;75.67;100345.09;5083776;27;45319;-65
2021/12/24 11:48:41;;;;;;;;;18.25;15.00;;;;;11.75;74.85;100352.16;5094338;27;45288;-64
2021/12/24 11:51:30;;;;;;;;;18.50;16.50;;;;;11.80;74.89;100355.75;5082633;27;45401;-64
2021/12/24 11:54:03;;;;;;;;;13.25;11.00;;;;;11.79;75.21;100354.00;5088333;27;46314;-64
2021/12/24 11:56:38;;;;;;;;;15.75;15.75;;;;;11.73;75.77;100348.59;5082540;27;45547;-64
2021/12/24 11:59:03;;;;;;;;;21.00;16.00;;;;;11.75;75.38;100345.97;5092448;27;45325;-64
2021/12/24 12:01:38;;;;;;;;;12.75;12.75;;;;;11.73;75.45;100345.06;5088301;27;45274;-65
2021/12/24 12:04:15;;;;;;;;;15.50;12.75;;;;;11.78;75.93;100362.78;5104054;27;45520;-66
2021/12/24 12:06:40;;;;;;;;;16.75;12.00;;;;;11.73;75.59;100359.19;5090747;27;45337;-65
2021/12/24 12:09:10;;;;;;;;;12.50;12.00;;;;;11.74;75.16;100358.34;5085156;27;45427;-64
2021/12/24 12:11:38;;;;;;;;;13.50;12.75;;;;;11.70;75.83;100345.91;5084398;27;45525;-64
2021/12/24 12:14:17;;;;;;;;;15.50;12.75;;;;;11.71;75.20;100362.72;5086278;27;46183;-65
2021/12/24 12:16:42;;;;;;;;;16.50;13.25;;;;;11.68;75.13;100358.28;5089105;27;45415;-65
2021/12/24 12:19:22;;;;;;;;;14.25;14.00;;;;;11.63;75.38;100344.06;5108874;27;45365;-65
2021/12/24 12:25:03;;;;;;;;;16.25;12.50;;;;;11.39;75.44;100311.13;5084087;27;45368;-66
2021/12/24 12:27:44;;;;;;;;;17.50;15.00;;;;;11.60;74.83;100341.41;5084659;27;46029;-65
2021/12/24 12:30:21;;;;;;;;;12.25;11.25;;;;;11.57;75.25;100347.53;5079842;27;45364;-65
2021/12/24 12:32:49;;;;;;;;;15.75;14.50;;;;;11.57;75.66;100351.94;5088217;27;45385;-65
2021/12/24 12:35:15;;;;;;;;;19.00;15.00;;;;;11.52;76.41;100351.88;5098378;27;47987;-65
2021/12/24 12:37:45;;;;;;;;;14.50;13.00;;;;;11.49;74.98;100343.91;5090952;27;45467;-65
2021/12/24 12:40:16;;;;;;;;;17.75;16.00;;;;;11.52;75.63;100343.06;5100299;27;45280;-65
2021/12/24 12:43:07;;;;;;;;;15.75;13.25;;;;;11.49;75.93;100317.44;5087164;27;45224;-64
2021/12/24 12:45:33;;;;;;;;;14.25;13.00;;;;;11.52;75.18;100330.69;5086006;27;46210;-65
2021/12/24 12:48:00;;;;;;;;;11.50;8.50;;;;;11.53;75.63;100326.28;5106245;27;45356;-65
2021/12/24 12:50:28;;;;;;;;;14.00;13.75;;;;;11.52;75.53;100317.47;5101563;27;45472;-65
2021/12/24 12:53:28;;;;;;;;;14.00;13.00;;;;;11.57;75.63;100329.00;5096421;27;45374;-65